Time;durP1;ratioP1;P1;durP2;ratioP2;P2;SDS_P1;SDS_P2;PMS_P1;PMS_P2;Temp;Humidity;BMP_temperature;BMP_pressure;BME280_temperature;BME280_humidity;BME280_pressure;Samples;Min_cycle;Max_cycle;Signal;HPM_P1;HPM_P2
2021/12/08 00:00:23;;;;;;;0.28;0.28;;;;;;;19.33;41.94;99013.88;5111645;28;20043;-40
2021/12/08 00:02:48;;;;;;;0.20;0.20;;;;;;;19.31;41.63;99003.19;5129090;28;20039;-40
2021/12/08 00:05:17;;;;;;;0.20;0.20;;;;;;;19.30;41.65;99016.19;5128227;28;20111;-40
2021/12/08 00:07:43;;;;;;;0.20;0.20;;;;;;;19.30;41.97;99013.41;5130663;28;20055;-40
2021/12/08 00:10:18;;;;;;;0.20;0.20;;;;;;;19.29;41.81;99006.25;5130070;28;20114;-41
2021/12/08 00:13:07;;;;;;;0.20;0.20;;;;;;;19.28;41.92;99004.63;5112958;28;20584;-40
2021/12/08 00:18:22;;;;;;;0.20;0.20;;;;;;;19.27;41.96;98996.69;5155720;27;20207;-39
2021/12/08 00:20:48;;;;;;;0.20;0.20;;;;;;;19.28;41.74;98990.84;5109608;27;20469;-38
2021/12/08 00:23:15;;;;;;;0.20;0.20;;;;;;;19.27;41.65;98994.75;5125953;27;20047;-38
2021/12/08 00:25:41;;;;;;;0.20;0.20;;;;;;;19.28;41.85;98995.56;5136967;27;20084;-38
2021/12/08 00:28:07;;;;;;;0.20;0.20;;;;;;;19.28;41.84;98984.50;5126802;27;20050;-38
2021/12/08 00:30:34;;;;;;;0.20;0.20;;;;;;;19.27;41.96;98994.75;5121039;27;20067;-40
2021/12/08 00:33:00;;;;;;;0.20;0.20;;;;;;;19.27;41.91;98988.41;5118880;27;20530;-39
2021/12/08 00:35:27;;;;;;;0.30;0.30;;;;;;;19.27;41.70;98985.66;5141244;27;20047;-38
2021/12/08 00:37:55;;;;;;;0.20;0.20;;;;;;;19.25;41.70;98966.66;5145592;27;20066;-39
2021/12/08 00:40:22;;;;;;;0.20;0.20;;;;;;;19.27;41.62;98977.38;5120177;27;20043;-38
2021/12/08 00:42:48;;;;;;;0.20;0.20;;;;;;;19.26;41.74;98987.59;5136628;27;20053;-39
2021/12/08 00:45:15;;;;;;;0.20;0.20;;;;;;;19.27;41.67;98985.66;5106609;27;20401;-38
2021/12/08 00:47:41;;;;;;;0.20;0.20;;;;;;;19.26;42.00;98989.56;5128191;27;20043;-39
2021/12/08 00:50:09;;;;;;;0.20;0.20;;;;;;;19.25;41.94;98985.97;5141537;27;20061;-39
2021/12/08 00:52:34;;;;;;;0.20;0.20;;;;;;;19.26;41.86;99003.34;5124199;27;20119;-39
2021/12/08 00:55:01;;;;;;;0.20;0.20;;;;;;;19.25;41.99;98994.25;5137556;27;20319;-38
2021/12/08 00:57:26;;;;;;;0.20;0.20;;;;;;;19.26;41.77;98995.09;5142656;27;20139;-38
2021/12/08 00:59:52;;;;;;;0.20;0.20;;;;;;;19.25;41.66;98996.19;5141459;27;20035;-38
2021/12/08 01:02:25;;;;;;;0.20;0.20;;;;;;;19.24;41.93;98997.34;5124237;27;20046;-39
2021/12/08 01:04:50;;;;;;;0.20;0.20;;;;;;;19.22;41.70;98997.69;5106873;27;20039;-39
2021/12/08 01:07:16;;;;;;;0.20;0.20;;;;;;;19.25;41.93;99007.22;5143625;27;20054;-38
2021/12/08 01:09:42;;;;;;;0.20;0.20;;;;;;;19.25;41.71;99007.22;5141609;27;20034;-39
2021/12/08 01:12:08;;;;;;;0.20;0.20;;;;;;;19.23;41.95;99004.81;5140040;27;20481;-39
2021/12/08 01:14:34;;;;;;;0.20;0.20;;;;;;;19.22;41.81;99011.47;5125048;27;20038;-39
2021/12/08 01:17:02;;;;;;;0.20;0.20;;;;;;;19.25;41.60;99004.47;5142346;27;20451;-39
2021/12/08 01:19:28;;;;;;;0.20;0.20;;;;;;;19.24;41.71;98992.63;5140230;27;20464;-38
2021/12/08 01:21:54;;;;;;;0.20;0.20;;;;;;;19.23;41.67;98984.69;5139063;27;20046;-39
2021/12/08 01:24:19;;;;;;;0.20;0.20;;;;;;;19.23;41.85;98998.47;5140723;27;20141;-38
2021/12/08 01:26:45;;;;;;;0.30;0.30;;;;;;;19.23;42.04;98999.28;5121657;27;20051;-38
2021/12/08 01:29:12;;;;;;;0.20;0.20;;;;;;;19.22;41.81;98989.41;5110519;28;20050;-38
2021/12/08 01:31:41;;;;;;;0.20;0.20;;;;;;;19.22;41.97;98985.84;5091574;28;20317;-38
2021/12/08 01:34:08;;;;;;;0.20;0.20;;;;;;;19.23;41.72;99001.25;5124534;28;20050;-38
2021/12/08 01:36:34;;;;;;;0.20;0.20;;;;;;;19.22;41.93;99014.25;5123544;28;20040;-38
2021/12/08 01:39:00;;;;;;;0.20;0.20;;;;;;;19.22;41.97;98996.88;5127227;28;20058;-38
2021/12/08 01:41:27;;;;;;;0.20;0.20;;;;;;;19.22;41.99;99000.44;5124744;28;20051;-38
2021/12/08 01:46:38;;;;;;;0.20;0.20;;;;;;;19.21;41.82;99012.63;5113835;28;20047;-39
2021/12/08 01:49:05;;;;;;;0.20;0.20;;;;;;;19.22;41.71;99002.38;5125602;28;20050;-38
2021/12/08 01:51:31;;;;;;;0.20;0.20;;;;;;;19.21;41.94;99003.50;5127087;28;20043;-38
2021/12/08 01:54:01;;;;;;;0.20;0.20;;;;;;;19.21;41.72;98998.81;5123227;28;20509;-39
2021/12/08 01:56:27;;;;;;;0.20;0.20;;;;;;;19.21;41.66;99022.81;5129330;28;20051;-38
2021/12/08 01:58:53;;;;;;;0.20;0.20;;;;;;;19.20;41.81;98999.94;5126368;28;20035;-39
2021/12/08 02:01:22;;;;;;;0.20;0.20;;;;;;;19.21;41.81;99000.75;5127457;28;20039;-39
2021/12/08 02:03:48;;;;;;;0.20;0.20;;;;;;;19.20;42.01;99015.69;5108462;28;20554;-38
2021/12/08 02:06:15;;;;;;;0.20;0.20;;;;;;;19.20;41.86;99008.22;5108393;28;20047;-38
2021/12/08 02:08:42;;;;;;;0.20;0.20;;;;;;;19.20;41.82;99012.94;5107239;28;20124;-38
2021/12/08 02:11:08;;;;;;;0.20;0.20;;;;;;;19.19;41.95;99011.31;5122491;28;20068;-39
2021/12/08 02:13:37;;;;;;;0.20;0.20;;;;;;;19.20;41.78;99026.72;5109400;28;20043;-38
2021/12/08 02:16:08;;;;;;;0.20;0.20;;;;;;;19.19;41.87;99017.66;5111632;28;20062;-39
2021/12/08 02:18:35;;;;;;;0.20;0.20;;;;;;;19.19;41.82;99030.63;5128735;27;20050;-39
2021/12/08 02:21:03;;;;;;;0.20;0.20;;;;;;;19.19;42.07;99031.44;5127612;28;20104;-38
2021/12/08 02:23:31;;;;;;;0.20;0.20;;;;;;;19.18;41.83;99026.25;5106962;28;20057;-39
2021/12/08 02:25:58;;;;;;;0.20;0.20;;;;;;;19.18;41.90;99027.06;5127641;28;20035;-38
2021/12/08 02:28:23;;;;;;;0.20;0.20;;;;;;;19.19;41.78;99039.72;5123209;28;20039;-38
2021/12/08 02:30:56;;;;;;;0.20;0.20;;;;;;;19.19;41.74;99030.63;5124991;28;20060;-39
2021/12/08 02:47:28;;;;;;;0.20;0.20;;;;;;;19.16;41.88;99045.06;5083801;28;20054;-38
2021/12/08 02:49:54;;;;;;;0.20;0.20;;;;;;;19.17;41.73;99041.16;5125734;28;20051;-38
2021/12/08 02:52:20;;;;;;;0.20;0.20;;;;;;;19.17;42.00;99055.81;5117636;28;20051;-39
2021/12/08 02:54:48;;;;;;;0.20;0.20;;;;;;;19.17;42.01;99055.81;5120480;28;20055;-38
2021/12/08 02:57:16;;;;;;;0.20;0.20;;;;;;;19.18;41.93;99051.09;5114612;28;20190;-39
2021/12/08 02:59:42;;;;;;;0.20;0.20;;;;;;;19.16;41.84;99050.59;5118868;28;20076;-39
2021/12/08 03:02:09;;;;;;;0.20;0.20;;;;;;;19.16;42.09;99053.34;5122907;28;20047;-38
2021/12/08 03:04:35;;;;;;;0.20;0.20;;;;;;;19.16;42.06;99056.09;5121988;28;20494;-38
2021/12/08 03:07:01;;;;;;;0.30;0.30;;;;;;;19.16;41.79;99058.88;5121921;28;20060;-38
2021/12/08 03:09:27;;;;;;;0.20;0.20;;;;;;;19.16;41.88;99064.38;5125063;28;20096;-38
2021/12/08 03:11:54;;;;;;;0.30;0.30;;;;;;;19.17;41.88;99066.00;5108064;28;20436;-39
2021/12/08 03:14:20;;;;;;;0.20;0.20;;;;;;;19.16;41.82;99069.91;5123952;28;20055;-38
2021/12/08 03:16:50;;;;;;;0.20;0.20;;;;;;;19.17;42.06;99071.53;5122834;28;20054;-39
2021/12/08 03:19:17;;;;;;;0.30;0.30;;;;;;;19.16;41.81;99079.00;5126284;28;20051;-39
2021/12/08 03:21:43;;;;;;;0.20;0.20;;;;;;;19.16;41.79;99061.63;5122747;28;20076;-40
2021/12/08 03:24:19;;;;;;;0.20;0.20;;;;;;;19.16;42.20;99069.91;5122698;28;20092;-39
2021/12/08 03:26:50;;;;;;;0.20;0.20;;;;;;;19.16;41.90;99079.00;5092623;28;20413;-39
2021/12/08 03:29:24;;;;;;;0.30;0.30;;;;;;;19.16;41.81;99076.22;5125384;28;20043;-39
2021/12/08 03:31:52;;;;;;;0.20;0.20;;;;;;;19.16;41.78;99081.75;5106470;28;20459;-39
2021/12/08 03:34:21;;;;;;;0.28;0.28;;;;;;;19.16;41.88;99086.47;5105571;28;20047;-38
2021/12/08 03:36:47;;;;;;;;;;;;;;;19.14;41.78;99088.75;5107396;28;20043;-39
2021/12/08 03:39:12;;;;;;;0.20;0.20;;;;;;;19.15;42.13;99093.13;5123299;28;19976;-39
2021/12/08 03:41:38;;;;;;;0.20;0.20;;;;;;;19.14;41.79;99092.31;5106515;28;20046;-39
2021/12/08 03:44:05;;;;;;;0.20;0.20;;;;;;;19.15;42.10;99093.13;5107725;28;20383;-39
2021/12/08 03:46:35;;;;;;;0.20;0.20;;;;;;;19.14;42.01;99103.34;5124360;28;20051;-39
2021/12/08 03:49:05;;;;;;;0.20;0.20;;;;;;;19.15;41.93;99101.41;5107909;28;20049;-39
2021/12/08 03:51:30;;;;;;;0.20;0.20;;;;;;;19.15;41.99;99101.41;5107018;28;20039;-38
2021/12/08 03:53:56;;;;;;;0.20;0.20;;;;;;;19.14;41.99;99100.59;5117387;28;20096;-38
2021/12/08 03:56:22;;;;;;;0.20;0.20;;;;;;;19.14;41.87;99102.53;5120133;28;20316;-39
2021/12/08 03:58:47;;;;;;;0.30;0.30;;;;;;;19.14;42.00;99111.63;5107079;28;20101;-41
2021/12/08 04:01:13;;;;;;;0.20;0.20;;;;;;;19.14;42.10;99113.59;5122961;28;20221;-40
2021/12/08 04:03:40;;;;;;;0.30;0.30;;;;;;;19.14;41.89;99108.06;5105494;28;20035;-40
2021/12/08 04:06:15;;;;;;;0.20;0.20;;;;;;;19.14;41.96;99108.06;5122761;28;20326;-39
2021/12/08 04:08:45;;;;;;;0.20;0.20;;;;;;;19.15;42.09;99104.16;5124865;28;20044;-40
2021/12/08 04:11:12;;;;;;;0.20;0.20;;;;;;;19.14;41.92;99097.03;5122340;28;20050;-39
2021/12/08 04:13:50;;;;;;;0.20;0.20;;;;;;;19.14;41.94;99099.78;5119037;28;20039;-39
2021/12/08 04:16:19;;;;;;;0.20;0.20;;;;;;;19.14;41.91;99102.53;5122380;28;20087;-40
2021/12/08 04:18:45;;;;;;;0.20;0.20;;;;;;;19.15;41.96;99101.41;5126731;27;20081;-39
2021/12/08 04:21:12;;;;;;;0.20;0.20;;;;;;;19.13;41.92;99095.38;5101308;28;20043;-41
2021/12/08 04:23:40;;;;;;;0.20;0.20;;;;;;;19.13;42.02;99098.97;5121502;28;20482;-39
2021/12/08 04:26:11;;;;;;;0.20;0.20;;;;;;;19.13;42.18;99096.22;5122221;28;20043;-39
2021/12/08 04:28:37;;;;;;;0.20;0.20;;;;;;;19.13;41.94;99089.84;5106359;28;20043;-39
2021/12/08 04:31:09;;;;;;;0.30;0.30;;;;;;;19.13;41.97;99089.84;5120566;28;20096;-39
2021/12/08 04:33:36;;;;;;;0.20;0.20;;;;;;;19.12;42.08;99097.34;5102667;28;20042;-40
2021/12/08 04:36:06;;;;;;;0.20;0.20;;;;;;;19.13;41.91;99101.75;5122783;27;20182;-39
2021/12/08 04:38:37;;;;;;;0.20;0.20;;;;;;;19.13;42.19;99103.66;5124477;28;20490;-39
2021/12/08 04:41:09;;;;;;;0.20;0.20;;;;;;;19.13;41.86;99107.25;5105173;28;20607;-38
2021/12/08 04:43:56;;;;;;;0.20;0.20;;;;;;;19.13;42.11;99106.41;5105900;28;20046;-39
2021/12/08 04:46:45;;;;;;;0.20;0.20;;;;;;;19.12;42.19;99116.66;5122998;28;20122;-41
2021/12/08 05:04:09;;;;;;;0.20;0.20;;;;;;;19.12;42.18;99140.66;5128292;27;20057;-39
2021/12/08 05:06:21;;;;;;;0.20;0.20;;;;;;;19.11;42.03;99139.06;5149357;27;20039;-39
2021/12/08 05:08:50;;;;;;;0.20;0.20;;;;;;;19.10;42.02;99143.75;5158211;27;20047;-39
2021/12/08 05:11:22;;;;;;;0.20;0.20;;;;;;;19.12;42.01;99146.19;5145169;27;20049;-38
2021/12/08 05:13:52;;;;;;;0.20;0.20;;;;;;;19.11;42.08;99150.09;5158699;27;20046;-38
2021/12/08 05:16:19;;;;;;;0.20;0.20;;;;;;;19.11;42.01;99145.38;5139384;27;20046;-38
2021/12/08 05:18:48;;;;;;;0.20;0.20;;;;;;;19.11;41.98;99153.66;5160444;27;20181;-39
2021/12/08 05:21:20;;;;;;;;;;;;;;;19.11;42.17;99152.84;5161644;27;20055;-39
2021/12/08 05:23:50;;;;;;;0.20;0.20;;;;;;;19.11;42.07;99161.13;5139881;27;20117;-38
2021/12/08 05:26:20;;;;;;;0.20;0.20;;;;;;;19.10;42.06;99156.75;5161858;27;20057;-38
2021/12/08 05:28:48;;;;;;;0.20;0.20;;;;;;;19.11;42.16;99152.84;5144392;27;20049;-38
2021/12/08 05:31:20;;;;;;;0.20;0.20;;;;;;;19.11;42.02;99155.59;5140982;27;20043;-39
2021/12/08 05:33:46;;;;;;;0.20;0.20;;;;;;;19.11;42.07;99152.84;5125825;27;20074;-38
2021/12/08 05:36:13;;;;;;;0.30;0.30;;;;;;;19.11;41.98;99150.09;5160526;27;20472;-39
2021/12/08 05:38:39;;;;;;;0.20;0.20;;;;;;;19.10;42.21;99154.00;5156326;27;20408;-38
2021/12/08 05:41:12;;;;;;;0.20;0.20;;;;;;;19.09;41.96;99149.63;5161726;27;20125;-38
2021/12/08 05:43:38;;;;;;;0.20;0.20;;;;;;;19.09;42.23;99153.19;5161180;27;20447;-38
2021/12/08 05:46:06;;;;;;;0.20;0.20;;;;;;;19.10;42.22;99163.06;5160279;27;20057;-38
2021/12/08 05:48:33;;;;;;;0.20;0.20;;;;;;;19.11;41.98;99169.41;5158732;27;20043;-39
2021/12/08 05:51:07;;;;;;;0.20;0.20;;;;;;;19.10;41.95;99170.56;5160576;27;20083;-38
2021/12/08 05:53:34;;;;;;;0.20;0.20;;;;;;;19.08;42.06;99170.84;5135818;27;20039;-38
2021/12/08 05:56:00;;;;;;;0.20;0.20;;;;;;;19.10;42.14;99170.56;5144473;27;20050;-38
2021/12/08 05:58:27;;;;;;;0.20;0.20;;;;;;;19.09;42.23;99158.69;5160598;27;20048;-39
2021/12/08 06:01:00;;;;;;;0.20;0.20;;;;;;;19.09;42.21;99166.97;5143196;27;20038;-40
2021/12/08 06:03:26;;;;;;;0.20;0.20;;;;;;;19.09;41.99;99166.16;5127020;27;20038;-40
2021/12/08 06:05:55;;;;;;;0.20;0.20;;;;;;;19.10;42.31;99165.03;5146326;27;20174;-39
2021/12/08 06:08:22;;;;;;;0.20;0.20;;;;;;;19.09;42.00;99178.00;5146405;27;20528;-38
2021/12/08 06:10:48;;;;;;;0.20;0.20;;;;;;;19.10;42.07;99178.81;5148349;27;20073;-38
2021/12/08 06:13:16;;;;;;;0.20;0.20;;;;;;;19.10;42.19;99178.81;5144827;27;20096;-40
2021/12/08 06:15:45;;;;;;;0.20;0.20;;;;;;;19.10;42.23;99184.34;5126672;27;20099;-38
2021/12/08 06:18:11;;;;;;;0.20;0.20;;;;;;;19.10;42.08;99181.59;5118698;27;20078;-39
2021/12/08 06:20:37;;;;;;;0.20;0.20;;;;;;;19.16;42.75;99183.84;5130465;27;20051;-45
2021/12/08 06:23:05;;;;;;;0.20;0.20;;;;;;;19.37;42.73;99191.50;5131625;27;20061;-40
2021/12/08 06:25:32;;;;;;;0.20;0.20;;;;;;;19.48;43.48;99192.81;5130355;27;20258;-41
2021/12/08 06:27:57;;;;;;;0.20;0.20;;;;;;;19.58;43.99;99194.44;5133338;27;20320;-43
2021/12/08 06:30:30;;;;;;;0.20;0.20;;;;;;;19.61;43.83;99200.16;5131057;27;20201;-41
2021/12/08 06:32:56;;;;;;;0.20;0.20;;;;;;;19.57;43.77;99198.34;5114610;27;20047;-39
2021/12/08 06:35:27;;;;;;;0.20;0.20;;;;;;;19.51;43.67;99194.91;5109630;27;20522;-39
2021/12/08 06:37:54;;;;;;;0.20;0.20;;;;;;;19.47;43.48;99193.94;5131679;27;20371;-39
2021/12/08 06:40:27;;;;;;;0.20;0.20;;;;;;;19.45;43.27;99199.78;5108525;27;20152;-40
2021/12/08 06:42:57;;;;;;;0.20;0.20;;;;;;;19.44;43.35;99198.19;5127910;27;21133;-39
2021/12/08 06:45:29;;;;;;;0.20;0.20;;;;;;;19.43;43.43;99195.72;5127131;27;20043;-42
2021/12/08 06:48:07;;;;;;;0.20;0.20;;;;;;;19.43;43.05;99202.09;5130016;27;20380;-40
2021/12/08 06:50:48;;;;;;;0.20;0.20;;;;;;;19.43;43.09;99204.00;5125217;27;20046;-41
2021/12/08 06:53:14;;;;;;;0.20;0.20;;;;;;;19.45;42.97;99215.56;5099851;27;20054;-40
2021/12/08 06:55:44;;;;;;;0.20;0.20;;;;;;;19.45;42.82;99221.06;5124745;27;20394;-39
2021/12/08 06:58:18;;;;;;;0.20;0.20;;;;;;;19.46;42.85;99230.97;5099492;27;20058;-42
2021/12/08 07:04:08;;;;;;;0.20;0.20;;;;;;;19.46;42.88;99225.44;5149190;27;20209;-42
2021/12/08 07:09:07;;;;;;;0.20;0.20;;;;;;;19.47;42.81;99221.53;5131335;27;20133;-41
2021/12/08 07:11:34;;;;;;;0.20;0.20;;;;;;;19.47;42.82;99224.31;5153400;27;20133;-41
2021/12/08 07:13:59;;;;;;;0.20;0.20;;;;;;;19.48;42.83;99231.47;5154250;27;20039;-41
2021/12/08 07:16:31;;;;;;;0.20;0.20;;;;;;;19.49;42.62;99233.09;5149551;27;20543;-39
2021/12/08 07:19:08;;;;;;;0.20;0.20;;;;;;;19.50;42.75;99240.22;5136397;27;20053;-40
2021/12/08 07:21:38;;;;;;;0.20;0.20;;;;;;;19.64;42.81;99237.34;5132889;27;20048;-41
2021/12/08 07:24:26;;;;;;;0.20;0.20;;;;;;;19.65;42.70;99239.81;5119413;27;20034;-44
2021/12/08 07:26:56;;;;;;;0.20;0.20;;;;;;;19.64;42.58;99248.38;5113617;27;20099;-42
2021/12/08 07:29:27;;;;;;;0.20;0.20;;;;;;;19.62;42.72;99240.44;5134447;27;20265;-40
2021/12/08 07:31:56;;;;;;;0.20;0.20;;;;;;;19.62;42.54;99236.88;5153420;27;20424;-41
2021/12/08 07:34:24;;;;;;;0.20;0.20;;;;;;;19.62;42.80;99245.97;5147530;27;20751;-42
2021/12/08 07:36:56;;;;;;;0.20;0.20;;;;;;;19.62;42.76;99243.19;5118771;27;20121;-42
2021/12/08 07:39:27;;;;;;;0.20;0.20;;;;;;;19.63;42.71;99235.72;5138246;27;20053;-43
2021/12/08 07:42:00;;;;;;;0.20;0.20;;;;;;;19.62;42.29;99229.41;5151224;27;20051;-41
2021/12/08 07:44:26;;;;;;;0.20;0.20;;;;;;;19.63;42.47;99236.53;5160992;27;20051;-41
2021/12/08 07:46:56;;;;;;;0.20;0.20;;;;;;;19.63;42.55;99233.78;5157512;27;20094;-39
2021/12/08 07:49:36;;;;;;;0.20;0.20;;;;;;;19.64;42.40;99243.69;5148362;27;20472;-43
2021/12/08 07:52:10;;;;;;;0.20;0.20;;;;;;;19.65;42.62;99253.59;5126108;27;21610;-40
2021/12/08 07:54:37;;;;;;;0.20;0.20;;;;;;;19.66;42.33;99252.47;5129928;27;20042;-41
2021/12/08 07:57:07;;;;;;;0.20;0.20;;;;;;;19.66;42.35;99263.50;5147489;27;20042;-41
2021/12/08 07:59:36;;;;;;;0.20;0.20;;;;;;;19.67;42.39;99259.59;5130855;27;20185;-43
2021/12/08 08:02:06;;;;;;;;;;;;;;;19.68;42.24;99277.78;5149488;27;20573;-41
2021/12/08 08:04:35;;;;;;;0.20;0.20;;;;;;;19.68;42.39;99280.56;5142529;27;19927;-39
2021/12/08 08:07:02;;;;;;;0.20;0.20;;;;;;;19.69;42.20;99278.59;5122626;27;20047;-39
2021/12/08 08:09:34;;;;;;;0.20;0.20;;;;;;;19.69;42.34;99276.69;5127017;27;20149;-40
2021/12/08 08:12:02;;;;;;;0.20;0.20;;;;;;;19.69;42.14;99282.19;5131200;27;20053;-42
2021/12/08 08:14:34;;;;;;;0.20;0.20;;;;;;;19.71;42.21;99273.59;5137997;27;20998;-40
2021/12/08 08:17:00;;;;;;;0.20;0.20;;;;;;;19.71;42.01;99273.59;5119040;27;20051;-41
2021/12/08 08:19:29;;;;;;;0.20;0.20;;;;;;;19.72;42.15;99276.00;5115790;28;20047;-40
2021/12/08 08:22:02;;;;;;;0.20;0.20;;;;;;;19.72;42.09;99272.44;5116840;28;20138;-39
2021/12/08 08:24:28;;;;;;;0.20;0.20;;;;;;;19.73;42.03;99280.41;5098920;28;20134;-39
2021/12/08 08:26:59;;;;;;;0.20;0.20;;;;;;;19.73;41.93;99285.94;5116079;27;20058;-42
2021/12/08 08:29:25;;;;;;;0.20;0.20;;;;;;;19.74;41.91;99292.28;5096898;28;20048;-39
2021/12/08 08:31:59;;;;;;;0.20;0.20;;;;;;;19.73;41.85;99297.00;5113425;28;20065;-41
2021/12/08 08:34:29;;;;;;;0.20;0.20;;;;;;;19.74;42.07;99295.03;5113319;28;20085;-41
2021/12/08 08:36:55;;;;;;;0.20;0.20;;;;;;;19.75;41.86;99296.66;5096053;28;20047;-39
2021/12/08 08:39:27;;;;;;;0.20;0.20;;;;;;;19.74;42.34;99306.91;5082732;28;20972;-39
2021/12/08 08:42:02;;;;;;;0.20;0.20;;;;;;;19.76;41.93;99306.56;5116868;28;20051;-40
2021/12/08 08:44:36;;;;;;;0.20;0.20;;;;;;;19.75;41.96;99303.00;5085377;28;20059;-39
2021/12/08 08:47:07;;;;;;;0.20;0.20;;;;;;;19.74;42.22;99317.94;5113925;28;20040;-39
2021/12/08 08:49:34;;;;;;;0.20;0.20;;;;;;;19.74;41.95;99312.41;5120924;27;20134;-40
2021/12/08 08:52:13;;;;;;;0.20;0.20;;;;;;;19.74;42.11;99304.13;5102238;28;20115;-40
2021/12/08 08:54:45;;;;;;;0.20;0.20;;;;;;;19.74;42.02;99306.09;5092932;28;20451;-40
2021/12/08 08:57:15;;;;;;;0.10;0.10;;;;;;;19.74;41.82;99312.41;5103509;28;20040;-40
2021/12/08 08:59:49;;;;;;;0.20;0.20;;;;;;;19.74;41.74;99304.13;5114691;28;20045;-41
2021/12/08 09:02:20;;;;;;;0.20;0.20;;;;;;;19.73;42.09;99301.69;5115280;28;20053;-40
2021/12/08 09:04:51;;;;;;;0.20;0.20;;;;;;;19.74;41.97;99297.81;5114459;28;20043;-42
2021/12/08 09:07:23;;;;;;;0.20;0.20;;;;;;;19.73;42.19;99301.69;5093601;28;20053;-39
2021/12/08 09:09:51;;;;;;;0.20;0.20;;;;;;;19.73;41.97;99301.69;5112708;28;20035;-40
2021/12/08 09:12:23;;;;;;;0.20;0.20;;;;;;;19.72;42.03;99303.63;5094178;28;20054;-40
2021/12/08 09:14:56;;;;;;;0.20;0.20;;;;;;;19.78;41.66;99293.25;5092217;28;20043;-34
2021/12/08 09:17:28;;;;;;;0.20;0.20;;;;;;;19.83;41.78;99289.53;5088565;27;20046;-41
2021/12/08 09:20:05;;;;;;;0.20;0.20;;;;;;;19.82;41.86;99299.75;5116277;27;20071;-39
2021/12/08 09:22:39;;;;;;;0.20;0.20;;;;;;;19.80;41.98;99313.06;5118497;27;20051;-41
2021/12/08 09:25:13;;;;;;;0.20;0.20;;;;;;;19.80;41.96;99315.81;5107177;27;20053;-42
2021/12/08 09:27:43;;;;;;;0.20;0.20;;;;;;;19.79;41.81;99317.78;5096016;28;20043;-44
2021/12/08 09:30:16;;;;;;;0.20;0.20;;;;;;;19.79;41.98;99328.84;5114965;28;20083;-42
2021/12/08 09:32:54;;;;;;;0.20;0.20;;;;;;;19.79;41.72;99330.78;5076324;27;20043;-41
2021/12/08 09:35:24;;;;;;;0.20;0.20;;;;;;;19.79;41.79;99322.50;5083956;27;20043;-42
2021/12/08 09:37:54;;;;;;;0.17;0.17;;;;;;;19.79;41.74;99323.31;5095029;27;20215;-41
2021/12/08 09:40:28;;;;;;;0.20;0.20;;;;;;;19.80;41.91;99332.41;5112327;27;20099;-41
2021/12/08 09:42:58;;;;;;;0.20;0.20;;;;;;;19.80;41.87;99343.44;5110141;27;20040;-41
2021/12/08 09:45:29;;;;;;;0.20;0.20;;;;;;;19.77;40.25;99341.31;5113273;27;20246;-36
2021/12/08 09:47:55;;;;;;;0.20;0.20;;;;;;;19.82;40.37;99335.66;5106748;27;20061;-36
2021/12/08 09:50:20;;;;;;;0.20;0.20;;;;;;;19.84;39.86;99333.38;5116383;27;20050;-36
2021/12/08 09:52:47;;;;;;;0.20;0.20;;;;;;;19.86;40.16;99335.81;5115706;27;20050;-36
2021/12/08 09:55:16;;;;;;;0.20;0.20;;;;;;;19.86;40.38;99336.66;5113404;27;20047;-36
2021/12/08 09:57:42;;;;;;;0.20;0.20;;;;;;;19.86;40.28;99335.81;5110271;27;20047;-39
2021/12/08 10:00:11;;;;;;;0.20;0.20;;;;;;;19.85;40.43;99337.75;5110053;27;20054;-36
2021/12/08 10:02:37;;;;;;;0.20;0.20;;;;;;;19.85;40.76;99331.44;5107861;27;20154;-36
2021/12/08 10:05:13;;;;;;;0.20;0.20;;;;;;;19.86;40.87;99335.81;5115042;27;20146;-36
2021/12/08 10:07:40;;;;;;;0.20;0.20;;;;;;;19.87;40.86;99345.75;5122963;27;20142;-37
2021/12/08 10:10:08;;;;;;;0.20;0.20;;;;;;;19.82;39.10;99352.25;5116323;27;20055;-36
2021/12/08 10:12:36;;;;;;;0.20;0.20;;;;;;;19.90;39.94;99358.88;5096167;28;20465;-36
2021/12/08 10:15:05;;;;;;;0.20;0.20;;;;;;;19.92;40.00;99351.91;5111380;27;20294;-36
2021/12/08 10:17:33;;;;;;;0.20;0.20;;;;;;;19.90;40.24;99351.41;5081420;28;20062;-35
2021/12/08 10:20:20;;;;;;;0.20;0.20;;;;;;;19.91;40.62;99364.13;5111667;27;20047;-35
2021/12/08 10:23:07;;;;;;;0.20;0.20;;;;;;;19.91;40.20;99355.03;5097526;27;20139;-36
2021/12/08 10:25:37;;;;;;;0.20;0.20;;;;;;;19.92;40.44;99364.94;5112568;27;20051;-35
2021/12/08 10:28:07;;;;;;;0.20;0.20;;;;;;;19.92;40.45;99364.94;5094811;28;20613;-35
2021/12/08 10:30:41;;;;;;;0.20;0.20;;;;;;;19.93;40.40;99367.34;5110075;28;20146;-35
2021/12/08 10:33:12;;;;;;;0.20;0.20;;;;;;;19.93;40.64;99372.06;5092693;28;20363;-35
2021/12/08 10:35:42;;;;;;;0.20;0.20;;;;;;;19.93;40.69;99363.78;5111000;28;20047;-35
2021/12/08 10:38:08;;;;;;;0.20;0.20;;;;;;;19.94;40.35;99357.09;5095701;28;20039;-36
2021/12/08 10:40:34;;;;;;;0.20;0.20;;;;;;;19.94;40.37;99351.59;5095033;28;20043;-36
2021/12/08 10:43:13;;;;;;;0.20;0.20;;;;;;;19.94;40.48;99346.88;5115411;27;20124;-37
2021/12/08 10:45:39;;;;;;;0.20;0.20;;;;;;;19.95;40.95;99344.94;5112943;27;20396;-36
2021/12/08 10:48:07;;;;;;;0.20;0.20;;;;;;;19.96;40.42;99346.56;5095755;27;20646;-34
2021/12/08 10:56:13;;;;;;;0.20;0.20;;;;;;;19.97;40.40;99345.41;5086369;27;20047;-34
2021/12/08 10:58:43;;;;;;;0.20;0.20;;;;;;;19.98;40.69;99336.00;5101041;28;20048;-34
2021/12/08 11:01:16;;;;;;;0.20;0.20;;;;;;;19.97;40.52;99337.13;5115773;27;20043;-34
2021/12/08 11:03:44;;;;;;;0.20;0.20;;;;;;;19.98;40.46;99339.56;5104027;27;20054;-34
2021/12/08 11:06:15;;;;;;;0.20;0.20;;;;;;;19.99;40.73;99345.91;5114802;27;20057;-34
2021/12/08 11:08:44;;;;;;;0.20;0.20;;;;;;;19.90;35.76;99348.66;5098150;28;20606;-34
2021/12/08 11:13:55;;;;;;;0.20;0.20;;;;;;;20.07;39.41;99358.09;5151710;27;20120;-34
2021/12/08 11:16:27;;;;;;;0.20;0.20;;;;;;;20.07;39.63;99366.38;5112978;27;20074;-35
2021/12/08 11:19:14;;;;;;;0.20;0.20;;;;;;;20.05;39.87;99364.78;5135328;27;20042;-34
2021/12/08 11:21:45;;;;;;;0.20;0.20;;;;;;;20.05;39.85;99373.06;5132742;27;20587;-34
2021/12/08 11:24:20;;;;;;;0.20;0.20;;;;;;;20.05;39.95;99384.13;5125442;27;20250;-34
2021/12/08 11:26:49;;;;;;;0.20;0.20;;;;;;;20.06;40.03;99376.63;5128223;27;20149;-34
2021/12/08 11:29:24;;;;;;;0.20;0.20;;;;;;;20.06;39.69;99382.16;5114341;27;20090;-33
2021/12/08 11:32:02;;;;;;;0.20;0.20;;;;;;;20.07;39.89;99383.78;5130826;27;20135;-36
2021/12/08 11:34:32;;;;;;;0.20;0.20;;;;;;;20.07;40.00;99383.78;5145700;27;20111;-34
2021/12/08 11:37:05;;;;;;;0.20;0.20;;;;;;;20.08;39.88;99379.06;5116107;27;20054;-34
2021/12/08 11:39:34;;;;;;;0.20;0.20;;;;;;;20.08;40.17;99373.53;5124916;27;20378;-34
2021/12/08 11:42:02;;;;;;;;;;;;;;;20.09;39.95;99369.66;5126740;27;20578;-33
2021/12/08 11:44:30;;;;;;;0.20;0.20;;;;;;;20.08;39.95;99365.25;5143438;27;20425;-34
2021/12/08 11:47:05;;;;;;;0.20;0.20;;;;;;;20.08;40.24;99360.56;5148559;27;20050;-34
2021/12/08 11:49:31;;;;;;;0.20;0.20;;;;;;;20.08;40.01;99352.25;5147006;27;20461;-37
2021/12/08 11:52:06;;;;;;;0.20;0.20;;;;;;;20.10;40.23;99347.22;5127967;27;20630;-35
2021/12/08 11:54:48;;;;;;;0.20;0.20;;;;;;;20.11;39.93;99342.50;5147142;27;20114;-34
2021/12/08 11:57:37;;;;;;;0.20;0.20;;;;;;;20.10;40.01;99341.69;5146819;27;20054;-35
2021/12/08 12:00:15;;;;;;;0.20;0.20;;;;;;;20.09;40.08;99345.59;5114755;27;20092;-34
2021/12/08 12:02:45;;;;;;;0.20;0.20;;;;;;;20.11;39.96;99336.97;5143697;27;20071;-36
2021/12/08 12:05:13;;;;;;;0.20;0.20;;;;;;;20.11;39.97;99339.72;5126925;27;20061;-34
2021/12/08 12:07:39;;;;;;;0.20;0.20;;;;;;;20.11;40.17;99337.78;5129820;27;20182;-35
2021/12/08 12:10:09;;;;;;;0.20;0.20;;;;;;;20.11;40.08;99342.50;5148005;27;20130;-35
2021/12/08 12:12:37;;;;;;;0.20;0.20;;;;;;;20.11;40.23;99342.50;5113547;27;20051;-34
2021/12/08 12:15:05;;;;;;;0.20;0.20;;;;;;;20.12;39.98;99344.94;5127196;27;20050;-34
2021/12/08 12:17:31;;;;;;;0.20;0.20;;;;;;;20.12;39.90;99361.53;5145649;27;20138;-34
2021/12/08 12:20:03;;;;;;;0.20;0.20;;;;;;;20.12;39.97;99363.47;5135679;27;20055;-34
2021/12/08 12:22:34;;;;;;;0.20;0.20;;;;;;;20.19;40.04;99367.38;5112403;27;20043;-43
2021/12/08 12:30:48;;;;;;;0.20;0.20;;;;;;;20.17;40.01;99383.47;5143205;27;20529;-34
2021/12/08 12:33:19;;;;;;;0.20;0.20;;;;;;;20.17;39.84;99374.38;5131277;27;20047;-40
2021/12/08 12:35:49;;;;;;;0.20;0.20;;;;;;;20.17;40.00;99382.66;5111332;27;20053;-35
2021/12/08 12:38:14;;;;;;;0.20;0.20;;;;;;;20.15;40.16;99382.97;5133741;27;20422;-35